createdAt,value
2022-09-01T00:00:30.153Z,99679.03
2022-09-01T00:02:58.548Z,99585.50
2022-09-01T00:05:27.179Z,99568.34
2022-09-01T00:07:55.325Z,99667.72
2022-09-01T00:10:23.842Z,99676.50
2022-09-01T00:12:51.917Z,99668.81
2022-09-01T00:15:19.986Z,99673.19
2022-09-01T00:17:48.334Z,99639.16
2022-09-01T00:20:20.273Z,99630.50
2022-09-01T00:22:49.357Z,99675.81
2022-09-01T00:25:20.438Z,99672.19
2022-09-01T00:27:50.053Z,99669.25
2022-09-01T00:30:22.773Z,99680.03
2022-09-01T00:32:51.061Z,99674.44
2022-09-01T00:35:20.611Z,99637.75
2022-09-01T00:37:48.739Z,99534.78
2022-09-01T00:40:18.410Z,99671.19
2022-09-01T00:42:49.149Z,99671.47
2022-09-01T00:45:22.355Z,99677.78
2022-09-01T00:47:51.409Z,99662.94
2022-09-01T00:50:20.367Z,99682.50
2022-09-01T00:52:55.412Z,99629.44
2022-09-01T00:55:32.628Z,99631.50
2022-09-01T00:58:03.560Z,99685.56
2022-09-01T01:00:34.579Z,99686.81
2022-09-01T01:03:02.744Z,99640.34
2022-09-01T01:05:36.734Z,99641.19
2022-09-01T01:08:08.434Z,99680.00
2022-09-01T01:10:41.982Z,99685.88
2022-09-01T01:13:17.258Z,99633.34
2022-09-01T01:15:45.961Z,99685.56
2022-09-01T01:18:16.994Z,99696.47
2022-09-01T01:21:24.570Z,99682.31
2022-09-01T01:24:09.485Z,99691.94
2022-09-01T01:26:38.335Z,99690.56
2022-09-01T01:29:09.659Z,99688.34
2022-09-01T01:31:38.243Z,99679.94
2022-09-01T01:34:08.231Z,99690.34
2022-09-01T01:36:40.144Z,99642.41
2022-09-01T01:39:21.826Z,99688.63
2022-09-01T01:41:51.320Z,99679.50
2022-09-01T01:44:28.365Z,99660.28
2022-09-01T01:47:04.527Z,99640.53
2022-09-01T01:49:35.241Z,99684.59
2022-09-01T01:52:04.804Z,99618.50
2022-09-01T01:54:37.777Z,99680.66
2022-09-01T01:57:05.898Z,99663.22
2022-09-01T01:59:34.673Z,99637.81
2022-09-01T02:02:04.245Z,99674.06
2022-09-01T02:04:34.289Z,99667.75
2022-09-01T02:07:13.590Z,99620.50
2022-09-01T02:09:46.166Z,99646.13
2022-09-01T02:12:19.790Z,99668.94
2022-09-01T02:14:48.745Z,99653.44
2022-09-01T02:17:17.800Z,99618.38
2022-09-01T02:19:47.661Z,99620.31
2022-09-01T02:22:15.633Z,99664.75
2022-09-01T02:24:49.344Z,99613.56
2022-09-01T02:27:22.073Z,99631.63
2022-09-01T02:29:54.963Z,99630.06
2022-09-01T02:32:23.026Z,99625.88
2022-09-01T02:34:53.861Z,99638.34
2022-09-01T02:37:25.620Z,99625.16
2022-09-01T02:39:57.774Z,99681.63
2022-09-01T02:42:29.885Z,99676.59
2022-09-01T02:44:58.837Z,99637.88
2022-09-01T02:47:29.731Z,99620.94
2022-09-01T02:50:01.315Z,99678.97
2022-09-01T02:52:37.753Z,99675.47
2022-09-01T02:55:07.551Z,99678.97
2022-09-01T02:57:36.030Z,99679.69
2022-09-01T03:00:21.187Z,99676.47
2022-09-01T03:02:53.322Z,99628.00
2022-09-01T03:05:27.286Z,99682.22
2022-09-01T03:08:00.748Z,99681.69
2022-09-01T03:10:35.759Z,99675.53
2022-09-01T03:13:21.143Z,99620.03
2022-09-01T03:15:50.695Z,99622.97
2022-09-01T03:18:19.893Z,99629.34
2022-09-01T03:20:53.141Z,99671.03
2022-09-01T03:23:21.446Z,99667.41
2022-09-01T03:25:49.820Z,99672.97
2022-09-01T03:28:18.960Z,99644.88
2022-09-01T03:30:52.664Z,99674.00
2022-09-01T03:33:23.181Z,99646.19
2022-09-01T03:35:52.001Z,99631.66
2022-09-01T03:38:24.622Z,99679.00
2022-09-01T03:41:02.184Z,99628.91
2022-09-01T03:43:35.506Z,99670.66
2022-09-01T03:46:05.032Z,99680.53
2022-09-01T03:48:33.453Z,99678.03
2022-09-01T03:51:03.322Z,99625.66
2022-09-01T03:53:38.299Z,99676.50
2022-09-01T03:56:09.107Z,99630.28
2022-09-01T03:58:41.061Z,99642.03
2022-09-01T04:01:12.724Z,99678.66
2022-09-01T04:03:49.194Z,99680.19
2022-09-01T04:06:24.508Z,99684.94
2022-09-01T04:09:02.860Z,99682.16
2022-09-01T04:11:34.087Z,99643.06
2022-09-01T04:14:02.914Z,99680.13
2022-09-01T04:16:54.591Z,99633.38
2022-09-01T04:19:26.566Z,99674.38
2022-09-01T04:22:01.340Z,99694.06
2022-09-01T04:24:35.007Z,99690.53
2022-09-01T04:27:09.193Z,99639.75
2022-09-01T04:29:39.345Z,99682.38
2022-09-01T04:32:13.299Z,99682.97
2022-09-01T04:34:45.227Z,99628.13
2022-09-01T04:37:21.813Z,99678.09
2022-09-01T04:39:57.824Z,99682.16
2022-09-01T04:42:32.692Z,99655.13
2022-09-01T04:45:10.470Z,99688.16
2022-09-01T04:47:45.691Z,99686.34
2022-09-01T04:50:19.145Z,99689.28
2022-09-01T04:53:07.055Z,99663.44
2022-09-01T04:55:45.511Z,99682.53
2022-09-01T04:58:19.056Z,99695.84
2022-09-01T05:00:52.378Z,99700.63
2022-09-01T05:03:24.409Z,99666.78
2022-09-01T05:06:20.778Z,99642.28
2022-09-01T05:08:59.770Z,99676.53
2022-09-01T05:11:45.298Z,99680.13
2022-09-01T05:14:23.487Z,99684.03
2022-09-01T05:16:59.971Z,99677.19
2022-09-01T05:19:31.008Z,99630.44
2022-09-01T05:22:01.429Z,99606.31
2022-09-01T05:24:32.388Z,99676.13
2022-09-01T05:27:08.524Z,99608.56
2022-09-01T05:29:38.957Z,99672.31
2022-09-01T05:32:12.734Z,99671.88
2022-09-01T05:34:44.027Z,99668.09
2022-09-01T05:37:14.723Z,99663.94
2022-09-01T05:39:42.772Z,99680.53
2022-09-01T05:42:11.657Z,99597.50
2022-09-01T05:44:44.467Z,99662.59
2022-09-01T05:47:20.375Z,99660.44
2022-09-01T05:49:53.874Z,99672.38
2022-09-01T05:52:25.271Z,99671.31
2022-09-01T05:54:55.673Z,99655.03
2022-09-01T05:57:34.311Z,99635.28
2022-09-01T06:00:12.584Z,99670.72
2022-09-01T06:02:43.758Z,99674.53
2022-09-01T06:05:19.349Z,99659.56
2022-09-01T06:07:49.721Z,99677.94
2022-09-01T06:10:19.342Z,99677.97
2022-09-01T06:12:48.830Z,99681.38
2022-09-01T06:15:18.659Z,99684.53
2022-09-01T06:17:51.533Z,99656.78
2022-09-01T06:20:20.281Z,99686.78
2022-09-01T06:22:49.052Z,99617.59
2022-09-01T06:25:18.803Z,99687.03
2022-09-01T06:27:48.720Z,99695.50
2022-09-01T06:30:24.664Z,99692.63
2022-09-01T06:33:11.235Z,99687.59
2022-09-01T06:35:45.151Z,99693.34
2022-09-01T06:38:15.594Z,99693.81
2022-09-01T06:40:47.597Z,99694.47
2022-09-01T06:43:20.625Z,99684.81
2022-09-01T06:45:55.625Z,99693.78
2022-09-01T06:48:31.126Z,99698.00
2022-09-01T06:51:21.806Z,99698.72
2022-09-01T06:53:59.903Z,99690.22
2022-09-01T06:56:37.104Z,99700.41
2022-09-01T06:59:15.798Z,99666.44
2022-09-01T07:01:53.298Z,99697.56
2022-09-01T07:04:32.214Z,99698.28
2022-09-01T07:10:22.708Z,99696.88
2022-09-01T07:13:06.657Z,99699.75
2022-09-01T07:18:34.250Z,99710.53
2022-09-01T07:21:36.123Z,99704.41
2022-09-01T07:24:13.665Z,99705.47
2022-09-01T07:27:09.353Z,99673.66
2022-09-01T07:29:41.624Z,99708.66
2022-09-01T07:35:00.251Z,99706.34
2022-09-01T07:43:44.981Z,99657.47
2022-09-01T07:46:40.524Z,99712.81
2022-09-01T07:49:30.146Z,99703.41
2022-09-01T07:52:03.967Z,99691.94
2022-09-01T07:54:34.301Z,99668.34
2022-09-01T07:57:03.262Z,99697.78
2022-09-01T07:59:35.681Z,99706.16
2022-09-01T08:02:18.469Z,99710.72
2022-09-01T08:04:49.412Z,99668.31
2022-09-01T08:07:20.707Z,99700.84
2022-09-01T08:09:49.164Z,99662.59
2022-09-01T08:12:18.010Z,99702.91
2022-09-01T08:17:51.523Z,99704.81
2022-09-01T08:20:21.539Z,99702.09
2022-09-01T08:23:16.425Z,99710.25
2022-09-01T08:25:46.981Z,99683.88
2022-09-01T08:28:17.109Z,99720.84
2022-09-01T08:30:52.493Z,99708.53
2022-09-01T08:33:26.312Z,99705.59
2022-09-01T08:35:55.740Z,99720.06
2022-09-01T08:38:24.311Z,99685.06
2022-09-01T08:40:57.480Z,99716.25
2022-09-01T08:43:37.925Z,99710.41
2022-09-01T08:46:24.262Z,99685.63
2022-09-01T08:52:27.786Z,99703.44
2022-09-01T08:55:27.541Z,99709.75
2022-09-01T08:57:59.899Z,99701.91
2022-09-01T09:00:36.171Z,99696.53
2022-09-01T09:03:23.883Z,99666.22
2022-09-01T09:06:21.271Z,99692.13
2022-09-01T09:08:58.687Z,99694.09
2022-09-01T09:11:45.916Z,99709.53
2022-09-01T09:14:44.325Z,99705.78
2022-09-01T09:17:16.190Z,99701.22
2022-09-01T09:19:45.976Z,99689.59
2022-09-01T09:22:17.946Z,99693.06
2022-09-01T09:25:36.998Z,99693.84
2022-09-01T09:28:05.404Z,99655.31
2022-09-01T09:30:33.902Z,99683.72
2022-09-01T09:36:19.645Z,99675.44
2022-09-01T09:38:48.083Z,99665.16
2022-09-01T09:41:20.906Z,99695.38
2022-09-01T09:44:02.344Z,99658.88
2022-09-01T09:46:36.204Z,99689.44
2022-09-01T09:49:36.456Z,99696.25
2022-09-01T09:52:08.957Z,99699.38
2022-09-01T09:54:42.106Z,99662.19
2022-09-01T09:57:13.798Z,99657.91
2022-09-01T10:00:10.330Z,99677.53
2022-09-01T10:02:52.052Z,99691.94
2022-09-01T10:05:25.863Z,99683.66
2022-09-01T10:07:57.035Z,99683.75
2022-09-01T10:10:29.065Z,99687.13
2022-09-01T10:12:59.511Z,99664.41
2022-09-01T10:15:33.612Z,99686.72
2022-09-01T10:18:29.074Z,99683.75
2022-09-01T10:21:08.675Z,99685.41
2022-09-01T10:23:38.818Z,99677.53
2022-09-01T10:26:23.444Z,99689.91
2022-09-01T10:29:01.301Z,99651.00
2022-09-01T10:31:32.726Z,99652.22
2022-09-01T10:34:05.835Z,99694.84
2022-09-01T10:36:37.667Z,99683.47
2022-09-01T10:39:11.009Z,99677.34
2022-09-01T10:42:01.078Z,99695.56
2022-09-01T10:44:36.470Z,99639.69
2022-09-01T10:47:32.881Z,99646.81
2022-09-01T10:50:22.924Z,99677.84
2022-09-01T10:53:00.022Z,99664.22
2022-09-01T10:55:45.685Z,99664.03
2022-09-01T11:01:48.382Z,99668.38
2022-09-01T11:04:30.725Z,99668.53
2022-09-01T11:07:13.302Z,99666.88
2022-09-01T11:09:46.438Z,99663.31
2022-09-01T11:12:38.525Z,99666.97
2022-09-01T11:15:42.621Z,99665.03
2022-09-01T11:18:29.700Z,99641.78
2022-09-01T11:21:28.259Z,99666.72
2022-09-01T11:24:40.416Z,99672.75
2022-09-01T11:27:33.925Z,99656.50
2022-09-01T11:30:10.008Z,99667.59
2022-09-01T11:32:40.865Z,99656.81
2022-09-01T11:35:23.675Z,99640.59
2022-09-01T11:37:57.558Z,99667.53
2022-09-01T11:40:33.660Z,99669.84
2022-09-01T11:43:16.950Z,99654.66
2022-09-01T11:45:56.601Z,99649.63
2022-09-01T11:48:27.248Z,99649.94
2022-09-01T11:51:04.865Z,99655.88
2022-09-01T11:53:34.848Z,99654.41
2022-09-01T11:56:43.098Z,99647.47
2022-09-01T11:59:11.806Z,99646.41
2022-09-01T12:01:41.246Z,99661.31
2022-09-01T12:04:40.429Z,99646.09
2022-09-01T12:07:24.199Z,99615.31
2022-09-01T12:09:53.165Z,99643.59
2022-09-01T12:12:37.142Z,99640.44
2022-09-01T12:15:27.178Z,99598.53
2022-09-01T12:18:35.747Z,99601.63
2022-09-01T12:21:08.216Z,99622.97
2022-09-01T12:23:46.106Z,99629.50
2022-09-01T12:26:29.530Z,99625.56
2022-09-01T12:28:58.398Z,99628.03
2022-09-01T12:31:27.230Z,99636.53
2022-09-01T12:33:57.168Z,99606.53
2022-09-01T12:36:35.421Z,99624.72
2022-09-01T12:39:20.013Z,99619.38
2022-09-01T12:42:20.756Z,99608.94
2022-09-01T12:44:59.625Z,99585.78
2022-09-01T12:47:36.797Z,99617.56
2022-09-01T12:50:07.825Z,99583.06
2022-09-01T12:52:46.952Z,99617.63
2022-09-01T12:58:10.877Z,99591.41
2022-09-01T13:00:59.864Z,99611.03
2022-09-01T13:03:29.700Z,99600.19
2022-09-01T13:06:01.195Z,99604.88
2022-09-01T13:08:36.093Z,99595.66
2022-09-01T13:11:11.323Z,99607.31
2022-09-01T13:13:40.063Z,99612.44
2022-09-01T13:16:13.413Z,99607.13
2022-09-01T13:21:35.342Z,99616.78
2022-09-01T13:24:07.209Z,99617.06
2022-09-01T13:26:37.071Z,99616.59
2022-09-01T13:29:05.211Z,99610.38
2022-09-01T13:31:34.312Z,99601.31
2022-09-01T13:34:22.910Z,99598.78
2022-09-01T13:36:52.875Z,99574.63
2022-09-01T13:39:22.858Z,99618.00
2022-09-01T13:41:51.588Z,99607.66
2022-09-01T13:44:19.938Z,99567.03
2022-09-01T13:50:05.576Z,99609.88
2022-09-01T13:52:25.200Z,99585.50
2022-09-01T13:54:53.585Z,99583.47
2022-09-01T13:57:21.737Z,99577.88
2022-09-01T13:59:50.444Z,99612.19
2022-09-01T14:02:18.584Z,99615.16
2022-09-01T14:04:47.229Z,99583.50
2022-09-01T14:07:16.576Z,99616.91
2022-09-01T14:09:45.964Z,99611.19
2022-09-01T14:12:14.007Z,99550.66
2022-09-01T14:17:30.473Z,99587.91
2022-09-01T14:19:58.636Z,99607.34
2022-09-01T14:22:26.778Z,99607.44
2022-09-01T14:24:55.053Z,99612.63
2022-09-01T14:27:23.586Z,99571.91
2022-09-01T14:29:54.768Z,99600.41
2022-09-01T14:32:27.327Z,99571.63
2022-09-01T14:34:56.829Z,99570.63
2022-09-01T14:37:25.509Z,99613.56
2022-09-01T14:39:57.569Z,99609.56
2022-09-01T14:42:28.832Z,99596.66
2022-09-01T14:44:57.322Z,99616.22
2022-09-01T14:47:26.259Z,99545.44
2022-09-01T14:49:55.980Z,99609.53
2022-09-01T14:52:24.148Z,99599.94
2022-09-01T14:54:52.692Z,99604.34
2022-09-01T14:57:30.804Z,99619.03
2022-09-01T15:00:10.661Z,99586.94
2022-09-01T15:02:43.100Z,99585.78
2022-09-01T15:05:13.381Z,99616.72
2022-09-01T15:07:42.947Z,99624.28
2022-09-01T15:10:23.411Z,99588.66
2022-09-01T15:12:59.380Z,99550.63
2022-09-01T15:15:30.043Z,99625.41
2022-09-01T15:18:01.056Z,99627.00
2022-09-01T15:20:45.889Z,99588.72
2022-09-01T15:23:19.677Z,99599.31
2022-09-01T15:25:50.769Z,99591.78
2022-09-01T15:28:19.171Z,99624.09
2022-09-01T15:30:47.717Z,99625.56
2022-09-01T15:33:16.854Z,99594.22
2022-09-01T15:35:46.701Z,99621.88
2022-09-01T15:38:17.781Z,99618.56
2022-09-01T15:40:57.180Z,99623.97
2022-09-01T15:43:27.951Z,99628.53
2022-09-01T15:46:02.310Z,99632.28
2022-09-01T15:48:30.571Z,99628.13
2022-09-01T15:51:33.598Z,99625.44
2022-09-01T15:54:07.547Z,99550.94
2022-09-01T15:56:36.013Z,99627.06
2022-09-01T15:59:08.123Z,99622.88
2022-09-01T16:01:42.985Z,99579.41
2022-09-01T16:04:18.622Z,99592.69
2022-09-01T16:06:49.839Z,99598.53
2022-09-01T16:09:21.349Z,99634.28
2022-09-01T16:11:49.495Z,99621.84
2022-09-01T16:14:17.638Z,99633.69
2022-09-01T16:17:08.143Z,99632.91
2022-09-01T16:19:58.449Z,99595.50
2022-09-01T16:22:44.817Z,99640.59
2022-09-01T16:25:24.287Z,99641.78
2022-09-01T16:27:54.316Z,99635.94
2022-09-01T16:30:29.292Z,99642.56
2022-09-01T16:33:03.074Z,99642.94
2022-09-01T16:36:08.242Z,99649.03
2022-09-01T16:38:44.408Z,99576.03
2022-09-01T16:41:44.704Z,99649.47
2022-09-01T16:44:21.809Z,99643.88
2022-09-01T16:47:05.806Z,99640.19
2022-09-01T16:50:05.320Z,99599.03
2022-09-01T16:52:59.535Z,99649.13
2022-09-01T16:55:53.633Z,99644.34
2022-09-01T16:58:37.829Z,99627.88
2022-09-01T17:01:37.329Z,99653.63
2022-09-01T17:04:12.068Z,99661.94
2022-09-01T17:07:07.897Z,99661.56
2022-09-01T17:10:13.174Z,99618.78
2022-09-01T17:12:53.413Z,99667.06
2022-09-01T17:15:41.217Z,99682.97
2022-09-01T17:18:42.637Z,99682.81
2022-09-01T17:21:46.383Z,99672.09
2022-09-01T17:24:26.278Z,99685.47
2022-09-01T17:27:08.101Z,99669.34
2022-09-01T17:29:52.337Z,99642.81
2022-09-01T17:32:41.747Z,99687.50
2022-09-01T17:35:37.875Z,99694.22
2022-09-01T17:38:39.904Z,99697.84
2022-09-01T17:41:34.843Z,99652.91
2022-09-01T17:44:30.204Z,99682.78
2022-09-01T17:47:23.413Z,99689.56
2022-09-01T17:50:15.550Z,99698.66
2022-09-01T17:53:12.562Z,99692.09
2022-09-01T17:56:23.924Z,99668.63
2022-09-01T17:59:38.398Z,99715.34
2022-09-01T18:03:09.611Z,99719.91
2022-09-01T18:05:44.718Z,99725.34
2022-09-01T18:08:30.920Z,99731.56
2022-09-01T18:11:29.492Z,99736.28
2022-09-01T18:14:21.157Z,99740.16
2022-09-01T18:16:52.171Z,99749.19
2022-09-01T18:19:26.586Z,99744.31
2022-09-01T18:22:06.238Z,99744.84
2022-09-01T18:24:42.253Z,99761.88
2022-09-01T18:27:12.542Z,99755.66
2022-09-01T18:29:41.835Z,99671.41
2022-09-01T18:32:39.256Z,99709.28
2022-09-01T18:35:47.332Z,99750.09
2022-09-01T18:38:41.293Z,99756.91
2022-09-01T18:41:12.187Z,99757.53
2022-09-01T18:44:49.445Z,99724.72
2022-09-01T18:48:19.592Z,99757.34
2022-09-01T18:51:31.959Z,99758.00
2022-09-01T18:54:56.608Z,99758.75
2022-09-01T18:57:54.767Z,99730.91
2022-09-01T19:04:56.008Z,99755.84
2022-09-01T19:08:27.513Z,99756.94
2022-09-01T19:11:46.048Z,99756.94
2022-09-01T19:15:11.645Z,99761.63
2022-09-01T19:18:02.325Z,99768.16
2022-09-01T19:20:46.745Z,99746.28
2022-09-01T19:23:42.372Z,99774.50
2022-09-01T19:26:21.418Z,99713.94
2022-09-01T19:29:05.581Z,99770.03
2022-09-01T19:32:00.080Z,99777.91
2022-09-01T19:34:54.443Z,99772.16
2022-09-01T19:37:28.948Z,99792.53
2022-09-01T19:40:01.916Z,99733.03
2022-09-01T19:42:57.801Z,99790.00
2022-09-01T19:46:14.850Z,99793.09
2022-09-01T19:49:21.971Z,99798.47
2022-09-01T19:52:53.385Z,99795.97
2022-09-01T19:55:58.956Z,99806.56
2022-09-01T19:58:57.330Z,99808.78
2022-09-01T20:01:43.072Z,99798.13
2022-09-01T20:04:27.237Z,99808.13
2022-09-01T20:07:02.487Z,99818.09
2022-09-01T20:09:44.144Z,99821.44
2022-09-01T20:12:32.529Z,99765.88
2022-09-01T20:15:18.028Z,99815.31
2022-09-01T20:17:58.372Z,99820.06
2022-09-01T20:20:46.727Z,99811.13
2022-09-01T20:24:02.064Z,99815.03
2022-09-01T20:27:16.128Z,99822.31
2022-09-01T20:30:10.129Z,99824.28
2022-09-01T20:33:10.611Z,99821.91
2022-09-01T20:36:03.228Z,99823.44
2022-09-01T20:39:25.674Z,99828.91
2022-09-01T20:42:19.738Z,99831.59
2022-09-01T20:45:01.934Z,99834.94
2022-09-01T20:47:32.262Z,99836.63
2022-09-01T20:50:13.018Z,99827.28
2022-09-01T20:53:09.792Z,99835.00
2022-09-01T20:55:50.270Z,99839.34
2022-09-01T20:58:45.454Z,99845.06
2022-09-01T21:01:46.677Z,99847.69
2022-09-01T21:04:29.548Z,99841.53
2022-09-01T21:07:31.882Z,99793.56
2022-09-01T21:10:31.040Z,99846.97
2022-09-01T21:13:25.154Z,99843.47
2022-09-01T21:16:27.674Z,99835.56
2022-09-01T21:19:14.878Z,99844.53
2022-09-01T21:21:47.568Z,99826.56
2022-09-01T21:24:16.965Z,99846.41
2022-09-01T21:26:45.610Z,99851.13
2022-09-01T21:29:22.713Z,99835.06
2022-09-01T21:31:51.614Z,99835.97
2022-09-01T21:34:19.925Z,99833.69
2022-09-01T21:36:48.182Z,99834.50
2022-09-01T21:39:16.345Z,99856.47
2022-09-01T21:41:45.633Z,99841.91
2022-09-01T21:44:15.415Z,99849.88
2022-09-01T21:46:43.888Z,99866.59
2022-09-01T21:49:14.320Z,99870.22
2022-09-01T21:51:43.741Z,99864.31
2022-09-01T21:54:12.017Z,99838.16
2022-09-01T21:56:40.062Z,99859.31
2022-09-01T21:59:11.921Z,99837.59
2022-09-01T22:01:40.117Z,99854.72
2022-09-01T22:04:08.583Z,99848.56
2022-09-01T22:06:41.917Z,99852.53
2022-09-01T22:09:20.701Z,99860.91
2022-09-01T22:11:51.955Z,99855.22
2022-09-01T22:14:22.078Z,99861.09
2022-09-01T22:16:50.941Z,99808.75
2022-09-01T22:19:20.168Z,99869.31
2022-09-01T22:21:49.134Z,99855.00
2022-09-01T22:24:19.155Z,99869.31
2022-09-01T22:26:49.201Z,99867.72
2022-09-01T22:29:18.512Z,99863.66
2022-09-01T22:31:46.708Z,99860.28
2022-09-01T22:34:14.954Z,99861.38
2022-09-01T22:36:47.402Z,99857.88
2022-09-01T22:39:17.817Z,99804.47
2022-09-01T22:41:46.571Z,99856.72
2022-09-01T22:44:14.942Z,99869.59
2022-09-01T22:46:44.722Z,99871.47
2022-09-01T22:49:13.292Z,99875.44
2022-09-01T22:51:43.269Z,99865.53
2022-09-01T22:54:12.013Z,99877.72
2022-09-01T22:56:41.932Z,99876.88
2022-09-01T22:59:14.149Z,99872.66
2022-09-01T23:01:45.989Z,99879.78
2022-09-01T23:04:16.095Z,99875.56
2022-09-01T23:06:51.834Z,99811.38
2022-09-01T23:09:21.290Z,99875.06
2022-09-01T23:11:50.989Z,99876.88
2022-09-01T23:14:19.413Z,99866.16
2022-09-01T23:16:51.502Z,99874.00
2022-09-01T23:19:22.000Z,99887.94
2022-09-01T23:21:51.777Z,99830.50
2022-09-01T23:24:20.561Z,99888.31
2022-09-01T23:26:50.278Z,99842.28
2022-09-01T23:29:19.983Z,99842.28
2022-09-01T23:31:48.578Z,99835.28
2022-09-01T23:34:16.672Z,99826.84
2022-09-01T23:36:44.760Z,99882.88
2022-09-01T23:39:13.100Z,99820.94
2022-09-01T23:41:42.126Z,99820.13
2022-09-01T23:44:11.878Z,99816.25
2022-09-01T23:46:45.982Z,99869.59
2022-09-01T23:49:18.069Z,99815.75
2022-09-01T23:51:47.871Z,99869.47
2022-09-01T23:54:16.125Z,99870.88
2022-09-01T23:56:44.337Z,99876.94
2022-09-01T23:59:13.253Z,99856.59
